createdAt,value
2017-11-25T00:00:16.443Z,8.34
2017-11-25T00:00:56.976Z,8.38
2017-11-25T00:01:37.491Z,8.37
2017-11-25T00:02:18.027Z,8.29
2017-11-25T00:02:58.559Z,8.25
2017-11-25T00:03:39.087Z,8.33
2017-11-25T00:04:19.609Z,8.28
2017-11-25T00:05:00.304Z,8.33
2017-11-25T00:05:41.037Z,8.28
2017-11-25T00:06:21.691Z,8.36
2017-11-25T00:07:02.304Z,8.33
2017-11-25T00:07:42.908Z,8.28
2017-11-25T00:08:23.439Z,8.28
2017-11-25T00:09:03.972Z,8.29
2017-11-25T00:09:44.514Z,8.29
2017-11-25T00:10:25.042Z,8.3
2017-11-25T00:11:05.563Z,8.33
2017-11-25T00:11:46.101Z,8.3
2017-11-25T00:12:26.628Z,8.29
2017-11-25T00:13:07.159Z,8.26
2017-11-25T00:13:47.700Z,8.26
2017-11-25T00:14:28.249Z,8.28
2017-11-25T00:15:08.782Z,8.28
2017-11-25T00:15:49.307Z,8.25
2017-11-25T00:16:29.850Z,8.22
2017-11-25T00:17:10.366Z,8.29
2017-11-25T00:17:50.894Z,8.28
2017-11-25T00:18:31.402Z,8.29
2017-11-25T00:19:11.960Z,8.33
2017-11-25T00:19:52.482Z,8.22
2017-11-25T00:20:33.014Z,8.29
2017-11-25T00:21:13.538Z,8.3
2017-11-25T00:21:54.077Z,8.3
2017-11-25T00:22:34.599Z,8.22
2017-11-25T00:23:15.199Z,8.28
2017-11-25T00:23:55.733Z,8.34
2017-11-25T00:24:36.256Z,8.33
2017-11-25T00:25:16.783Z,8.29
2017-11-25T00:25:57.319Z,8.3
2017-11-25T00:26:37.838Z,8.36
2017-11-25T00:27:18.367Z,8.33
2017-11-25T00:27:58.901Z,8.37
2017-11-25T00:28:39.429Z,8.26
2017-11-25T00:29:19.969Z,8.29
2017-11-25T00:30:00.494Z,8.29
2017-11-25T00:30:41.030Z,8.28
2017-11-25T00:31:21.559Z,8.29
2017-11-25T00:32:02.077Z,8.25
2017-11-25T00:32:42.612Z,8.22
2017-11-25T00:33:23.131Z,8.2
2017-11-25T00:34:03.665Z,8.2
2017-11-25T00:34:44.196Z,8.25
2017-11-25T00:35:24.719Z,8.22
2017-11-25T00:36:05.255Z,8.2
2017-11-25T00:36:45.784Z,8.23
2017-11-25T00:37:26.303Z,8.23
2017-11-25T00:38:06.833Z,8.22
2017-11-25T00:38:47.365Z,8.2
2017-11-25T00:39:27.887Z,8.22
2017-11-25T00:40:08.422Z,8.2
2017-11-25T00:40:48.957Z,8.25
2017-11-25T00:41:29.488Z,8.18
2017-11-25T00:42:10.002Z,8.26
2017-11-25T00:42:50.534Z,8.2
2017-11-25T00:43:31.068Z,8.25
2017-11-25T00:44:11.601Z,8.38
2017-11-25T00:44:52.140Z,8.34
2017-11-25T00:45:32.669Z,8.29
2017-11-25T00:46:13.195Z,8.29
2017-11-25T00:46:53.723Z,8.3
2017-11-25T00:47:34.256Z,8.33
2017-11-25T00:48:14.794Z,8.34
2017-11-25T00:48:55.325Z,8.34
2017-11-25T00:49:35.867Z,8.3
2017-11-25T00:50:16.381Z,8.3
2017-11-25T00:50:56.922Z,8.3
2017-11-25T00:51:37.439Z,8.28
2017-11-25T00:52:17.973Z,8.34
2017-11-25T00:52:58.509Z,8.29
2017-11-25T00:53:39.034Z,8.22
2017-11-25T00:54:19.569Z,8.25
2017-11-25T00:55:00.098Z,8.33
2017-11-25T00:55:40.623Z,8.29
2017-11-25T00:56:21.127Z,8.22
2017-11-25T00:57:01.663Z,8.29
2017-11-25T00:57:42.176Z,8.22
2017-11-25T00:58:22.692Z,8.16
2017-11-25T00:59:03.225Z,8.23
2017-11-25T00:59:43.750Z,8.2
2017-11-25T01:00:24.284Z,8.2
2017-11-25T01:01:04.811Z,8.19
2017-11-25T01:01:45.342Z,8.22
2017-11-25T01:02:25.875Z,8.18
2017-11-25T01:03:06.395Z,8.22
2017-11-25T01:03:46.930Z,8.12
2017-11-25T01:04:27.456Z,8.1
2017-11-25T01:05:07.973Z,8.08
2017-11-25T01:05:48.499Z,8.18
2017-11-25T01:06:29.038Z,8.11
2017-11-25T01:07:09.577Z,8.22
2017-11-25T01:07:50.097Z,8.19
2017-11-25T01:08:30.627Z,8.19
2017-11-25T01:09:11.159Z,8.25
2017-11-25T01:09:51.666Z,8.23
2017-11-25T01:10:32.198Z,8.23
2017-11-25T01:11:12.717Z,8.23
2017-11-25T01:11:53.256Z,8.25
2017-11-25T01:12:33.762Z,8.26
2017-11-25T01:13:14.294Z,8.28
2017-11-25T01:13:54.824Z,8.3
2017-11-25T01:14:35.346Z,8.28
2017-11-25T01:15:15.874Z,8.34
2017-11-25T01:15:56.396Z,8.29
2017-11-25T01:16:36.936Z,8.29
2017-11-25T01:17:17.466Z,8.26
2017-11-25T01:17:58.010Z,8.28
2017-11-25T01:18:38.545Z,8.33
2017-11-25T01:19:19.071Z,8.28
2017-11-25T01:19:59.589Z,8.36
2017-11-25T01:20:40.123Z,8.26
2017-11-25T01:21:20.660Z,8.3
2017-11-25T01:22:02.782Z,8.33
2017-11-25T01:22:43.330Z,8.28
2017-11-25T01:23:23.847Z,8.25
2017-11-25T01:24:04.383Z,8.34
2017-11-25T01:24:44.911Z,8.34
2017-11-25T01:25:25.519Z,8.33
2017-11-25T01:26:06.089Z,8.3
2017-11-25T01:26:46.605Z,8.28
2017-11-25T01:27:27.140Z,8.26
2017-11-25T01:28:07.670Z,8.41
2017-11-25T01:28:48.211Z,8.37
2017-11-25T01:29:28.733Z,8.34
2017-11-25T01:30:09.250Z,8.3
2017-11-25T01:30:49.786Z,8.43
2017-11-25T01:31:30.321Z,8.29
2017-11-25T01:32:10.850Z,8.36
2017-11-25T01:32:51.386Z,8.34
2017-11-25T01:33:31.931Z,8.43
2017-11-25T01:34:12.460Z,8.4
2017-11-25T01:34:52.984Z,8.37
2017-11-25T01:35:33.508Z,8.28
2017-11-25T01:36:14.019Z,8.4
2017-11-25T01:36:54.561Z,8.36
2017-11-25T01:37:35.097Z,8.28
2017-11-25T01:38:15.625Z,8.36
2017-11-25T01:38:56.155Z,8.38
2017-11-25T01:39:36.685Z,8.41
2017-11-25T01:40:17.221Z,8.38
2017-11-25T01:40:57.748Z,8.43
2017-11-25T01:41:38.271Z,8.37
2017-11-25T01:42:18.791Z,8.4
2017-11-25T01:42:59.326Z,8.41
2017-11-25T01:43:39.900Z,8.41
2017-11-25T01:44:20.428Z,8.45
2017-11-25T01:45:00.949Z,8.43
2017-11-25T01:45:41.467Z,8.45
2017-11-25T01:46:21.990Z,8.47
2017-11-25T01:47:02.517Z,8.44
2017-11-25T01:47:43.031Z,8.47
2017-11-25T01:48:23.545Z,8.47
2017-11-25T01:49:04.081Z,8.48
2017-11-25T01:49:44.643Z,8.47
2017-11-25T01:50:25.145Z,8.5
2017-11-25T01:51:05.669Z,8.53
2017-11-25T01:51:46.195Z,8.53
2017-11-25T01:52:26.730Z,8.53
2017-11-25T01:53:07.272Z,8.53
2017-11-25T01:53:47.803Z,8.52
2017-11-25T01:54:28.332Z,8.52
2017-11-25T01:55:08.843Z,8.44
2017-11-25T01:55:49.379Z,8.55
2017-11-25T01:56:29.908Z,8.55
2017-11-25T01:57:10.454Z,8.55
2017-11-25T01:57:50.985Z,8.56
2017-11-25T01:58:31.518Z,8.55
2017-11-25T01:59:12.047Z,8.47
2017-11-25T01:59:52.578Z,8.53
2017-11-25T02:00:33.116Z,8.58
2017-11-25T02:01:13.641Z,8.55
2017-11-25T02:01:54.173Z,8.48
2017-11-25T02:02:34.704Z,8.52
2017-11-25T02:03:15.229Z,8.48
2017-11-25T02:03:55.762Z,8.48
2017-11-25T02:04:36.295Z,8.5
2017-11-25T02:05:16.821Z,8.55
2017-11-25T02:05:57.351Z,8.53
2017-11-25T02:06:37.887Z,8.43
2017-11-25T02:07:18.416Z,8.43
2017-11-25T02:07:58.940Z,8.43
2017-11-25T02:08:39.468Z,8.4
2017-11-25T02:09:20.005Z,8.36
2017-11-25T02:10:00.543Z,8.48
2017-11-25T02:10:41.082Z,8.43
2017-11-25T02:11:21.591Z,8.41
2017-11-25T02:12:02.126Z,8.43
2017-11-25T02:12:42.657Z,8.43
2017-11-25T02:13:23.197Z,8.44
2017-11-25T02:14:03.708Z,8.41
2017-11-25T02:14:44.240Z,8.48
2017-11-25T02:15:24.774Z,8.43
2017-11-25T02:16:05.323Z,8.53
2017-11-25T02:16:45.831Z,8.55
2017-11-25T02:17:26.400Z,8.55
2017-11-25T02:18:06.942Z,8.58
2017-11-25T02:18:47.466Z,8.52
2017-11-25T02:19:28.006Z,8.55
2017-11-25T02:20:08.536Z,8.45
2017-11-25T02:20:49.072Z,8.48
2017-11-25T02:21:29.606Z,8.56
2017-11-25T02:22:10.130Z,8.48
2017-11-25T02:22:50.653Z,8.5
2017-11-25T02:23:31.179Z,8.65
2017-11-25T02:24:11.713Z,8.56
2017-11-25T02:24:52.234Z,8.48
2017-11-25T02:25:32.772Z,8.52
2017-11-25T02:26:13.302Z,8.56
2017-11-25T02:26:53.826Z,8.48
2017-11-25T02:27:34.407Z,8.5
2017-11-25T02:28:14.935Z,8.63
2017-11-25T02:28:55.475Z,8.52
2017-11-25T02:29:35.990Z,8.55
2017-11-25T02:30:16.497Z,8.58
2017-11-25T02:30:57.022Z,8.58
2017-11-25T02:31:37.556Z,8.61
2017-11-25T02:32:18.096Z,8.58
2017-11-25T02:32:58.611Z,8.61
2017-11-25T02:33:39.136Z,8.66
2017-11-25T02:34:19.672Z,8.62
2017-11-25T02:35:00.200Z,8.59
2017-11-25T02:35:40.732Z,8.66
2017-11-25T02:36:21.263Z,8.56
2017-11-25T02:37:01.778Z,8.63
2017-11-25T02:37:42.307Z,8.7
2017-11-25T02:38:22.828Z,8.68
2017-11-25T02:39:03.360Z,8.68
2017-11-25T02:39:43.879Z,8.63
2017-11-25T02:40:24.412Z,8.7
2017-11-25T02:41:04.943Z,8.59
2017-11-25T02:41:45.479Z,8.63
2017-11-25T02:42:26.001Z,8.68
2017-11-25T02:43:06.525Z,8.7
2017-11-25T02:43:47.061Z,8.56
2017-11-25T02:44:27.588Z,8.61
2017-11-25T02:45:08.114Z,8.5
2017-11-25T02:45:48.636Z,8.52
2017-11-25T02:46:29.155Z,8.56
2017-11-25T02:47:09.691Z,8.47
2017-11-25T02:47:50.221Z,8.47
2017-11-25T02:48:30.749Z,8.5
2017-11-25T02:49:11.265Z,8.43
2017-11-25T02:49:51.797Z,8.36
2017-11-25T02:50:32.333Z,8.38
2017-11-25T02:51:12.861Z,8.4
2017-11-25T02:51:53.382Z,8.28
2017-11-25T02:52:33.908Z,8.28
2017-11-25T02:53:14.442Z,8.3
2017-11-25T02:53:54.970Z,8.34
2017-11-25T02:54:35.489Z,8.3
2017-11-25T02:55:16.017Z,8.28
2017-11-25T02:55:56.549Z,8.28
2017-11-25T02:56:37.076Z,8.25
2017-11-25T02:57:17.589Z,8.33
2017-11-25T02:57:58.120Z,8.28
2017-11-25T02:58:38.652Z,8.3
2017-11-25T02:59:19.182Z,8.34
2017-11-25T02:59:59.717Z,8.29
2017-11-25T03:00:40.244Z,8.26
2017-11-25T03:01:20.751Z,8.3
2017-11-25T03:02:01.268Z,8.29
2017-11-25T03:02:41.818Z,8.29
2017-11-25T03:03:22.346Z,8.3
2017-11-25T03:04:02.885Z,8.28
2017-11-25T03:04:43.413Z,8.25
2017-11-25T03:05:23.935Z,8.28
2017-11-25T03:06:04.467Z,8.22
2017-11-25T03:06:44.999Z,8.2
2017-11-25T03:07:25.536Z,8.22
2017-11-25T03:08:06.065Z,8.25
2017-11-25T03:08:46.596Z,8.23
2017-11-25T03:09:27.127Z,8.26
2017-11-25T03:10:07.670Z,8.23
2017-11-25T03:10:48.192Z,8.19
2017-11-25T03:11:30.633Z,8.2
2017-11-25T03:12:12.969Z,8.2
2017-11-25T03:12:53.506Z,8.12
2017-11-25T03:13:34.041Z,8.26
2017-11-25T03:14:14.558Z,8.25
2017-11-25T03:14:55.090Z,8.15
2017-11-25T03:15:35.638Z,8.25
2017-11-25T03:16:16.151Z,8.18
2017-11-25T03:16:56.687Z,8.11
2017-11-25T03:17:37.207Z,8.1
2017-11-25T03:18:17.742Z,8.1
2017-11-25T03:18:58.266Z,8.15
2017-11-25T03:19:38.792Z,8.18
2017-11-25T03:20:19.328Z,8.11
2017-11-25T03:20:59.838Z,8.16
2017-11-25T03:21:40.370Z,8.07
2017-11-25T03:22:20.913Z,8.08
2017-11-25T03:23:01.454Z,8.11
2017-11-25T03:23:41.990Z,8.1
2017-11-25T03:24:22.528Z,8.12
2017-11-25T03:25:03.057Z,8.12
2017-11-25T03:25:43.592Z,7.98
2017-11-25T03:26:24.118Z,8.07
2017-11-25T03:27:04.638Z,7.97
2017-11-25T03:27:45.156Z,7.97
2017-11-25T03:28:25.679Z,7.97
2017-11-25T03:29:06.209Z,7.93
2017-11-25T03:29:46.751Z,7.95
2017-11-25T03:30:27.286Z,7.92
2017-11-25T03:31:07.817Z,8.07
2017-11-25T03:31:48.341Z,7.97
2017-11-25T03:32:28.872Z,7.97
2017-11-25T03:33:09.410Z,7.95
2017-11-25T03:33:49.941Z,7.92
2017-11-25T03:34:30.462Z,7.9
2017-11-25T03:35:10.983Z,7.89
2017-11-25T03:35:51.519Z,7.87
2017-11-25T03:36:32.053Z,7.98
2017-11-25T03:37:12.574Z,7.93
2017-11-25T03:37:53.104Z,7.97
2017-11-25T03:38:33.648Z,7.98
2017-11-25T03:39:14.175Z,7.93
2017-11-25T03:39:54.707Z,7.97
2017-11-25T03:40:35.274Z,7.95
2017-11-25T03:41:15.807Z,7.92
2017-11-25T03:41:56.336Z,7.92
2017-11-25T03:42:36.860Z,7.89
2017-11-25T03:43:17.388Z,7.97
2017-11-25T03:43:57.913Z,7.97
2017-11-25T03:44:38.447Z,7.95
2017-11-25T03:45:18.977Z,7.9
2017-11-25T03:45:59.504Z,7.87
2017-11-25T03:46:40.023Z,7.95
2017-11-25T03:47:20.548Z,7.93
2017-11-25T03:48:01.065Z,7.92
2017-11-25T03:48:41.582Z,7.9
2017-11-25T03:49:22.114Z,7.9
2017-11-25T03:50:02.643Z,7.86
2017-11-25T03:50:43.169Z,7.86
2017-11-25T03:51:23.690Z,7.83
2017-11-25T03:52:04.217Z,7.86
2017-11-25T03:52:44.756Z,7.86
2017-11-25T03:53:25.292Z,7.85
2017-11-25T03:54:05.811Z,7.79
2017-11-25T03:54:46.342Z,7.77
2017-11-25T03:55:26.924Z,7.71
2017-11-25T03:56:07.454Z,7.77
2017-11-25T03:56:47.984Z,7.75
2017-11-25T03:57:28.495Z,7.72
2017-11-25T03:58:09.026Z,7.71
2017-11-25T03:58:49.544Z,7.68
2017-11-25T03:59:30.065Z,7.67
2017-11-25T04:00:10.579Z,7.61
2017-11-25T04:00:51.108Z,7.58
2017-11-25T04:01:31.639Z,7.6
2017-11-25T04:02:12.162Z,7.55
2017-11-25T04:02:52.698Z,7.53
2017-11-25T04:03:33.229Z,7.53
2017-11-25T04:04:13.750Z,7.53
2017-11-25T04:04:54.319Z,7.57
2017-11-25T04:05:34.811Z,7.52
2017-11-25T04:06:15.334Z,7.53
2017-11-25T04:06:55.849Z,7.53
2017-11-25T04:07:36.389Z,7.53
2017-11-25T04:08:16.922Z,7.5
2017-11-25T04:08:57.446Z,7.52
2017-11-25T04:09:37.985Z,7.58
2017-11-25T04:10:18.489Z,7.46
2017-11-25T04:10:59.032Z,7.52
2017-11-25T04:11:39.540Z,7.5
2017-11-25T04:12:20.075Z,7.49
2017-11-25T04:13:00.600Z,7.53
2017-11-25T04:13:41.129Z,7.48
2017-11-25T04:14:21.662Z,7.53
2017-11-25T04:15:02.383Z,7.5
2017-11-25T04:15:42.776Z,7.53
2017-11-25T04:16:23.312Z,7.53
2017-11-25T04:17:03.837Z,7.52
2017-11-25T04:17:44.371Z,7.49
2017-11-25T04:18:24.918Z,7.48
2017-11-25T04:19:05.445Z,7.46
2017-11-25T04:19:45.975Z,7.43
2017-11-25T04:20:26.515Z,7.49
2017-11-25T04:21:07.033Z,7.49
2017-11-25T04:21:47.569Z,7.46
2017-11-25T04:22:28.150Z,7.45
2017-11-25T04:23:08.676Z,7.4
2017-11-25T04:23:49.215Z,7.42
2017-11-25T04:24:29.738Z,7.31
2017-11-25T04:25:10.266Z,7.35
2017-11-25T04:25:50.788Z,7.3
2017-11-25T04:26:31.309Z,7.31
2017-11-25T04:27:11.852Z,7.28
2017-11-25T04:27:52.388Z,7.34
2017-11-25T04:28:32.911Z,7.37
2017-11-25T04:29:13.428Z,7.34
2017-11-25T04:29:53.956Z,7.3
2017-11-25T04:30:34.480Z,7.32
2017-11-25T04:31:15.007Z,7.28
2017-11-25T04:31:55.533Z,7.32
2017-11-25T04:32:36.065Z,7.3
2017-11-25T04:33:16.603Z,7.31
2017-11-25T04:33:57.153Z,7.25
2017-11-25T04:34:37.684Z,7.27
2017-11-25T04:35:18.219Z,7.24
2017-11-25T04:35:58.751Z,7.2
2017-11-25T04:36:39.280Z,7.28
2017-11-25T04:37:19.813Z,7.21
2017-11-25T04:38:00.345Z,7.24
2017-11-25T04:38:40.869Z,7.25
2017-11-25T04:39:21.403Z,7.16
2017-11-25T04:40:01.916Z,7.24
2017-11-25T04:40:42.501Z,7.15
2017-11-25T04:41:23.020Z,7.15
2017-11-25T04:42:03.547Z,7.2
2017-11-25T04:42:44.067Z,7.16
2017-11-25T04:43:24.594Z,7.21
2017-11-25T04:44:05.118Z,7.2
2017-11-25T04:44:45.645Z,7.15
2017-11-25T04:45:26.175Z,7.23
2017-11-25T04:46:06.708Z,7.23
2017-11-25T04:46:47.251Z,7.17
2017-11-25T04:47:27.775Z,7.09
2017-11-25T04:48:08.300Z,7.23
2017-11-25T04:48:48.819Z,7.23
2017-11-25T04:49:29.339Z,7.15
2017-11-25T04:50:09.881Z,7.2
2017-11-25T04:50:50.388Z,7.12
2017-11-25T04:51:30.916Z,7.23
2017-11-25T04:52:11.428Z,7.27
2017-11-25T04:52:51.947Z,7.25
2017-11-25T04:53:32.481Z,7.28
2017-11-25T04:54:12.995Z,7.25
2017-11-25T04:54:53.523Z,7.13
2017-11-25T04:55:34.037Z,7.13
2017-11-25T04:56:14.581Z,7.16
2017-11-25T04:56:55.103Z,7.21
2017-11-25T04:57:35.633Z,7.17
2017-11-25T04:58:16.147Z,7.21
2017-11-25T04:58:56.764Z,7.23
2017-11-25T04:59:37.297Z,7.28
2017-11-25T05:00:17.834Z,7.2
2017-11-25T05:00:58.375Z,7.15
2017-11-25T05:01:38.904Z,7.12
2017-11-25T05:02:19.426Z,7.2
2017-11-25T05:02:59.952Z,7.21
2017-11-25T05:03:40.489Z,7.16
2017-11-25T05:04:21.025Z,7.17
2017-11-25T05:05:01.547Z,7.21
2017-11-25T05:05:42.070Z,7.17
2017-11-25T05:06:22.597Z,7.15
2017-11-25T05:07:03.122Z,7.13
2017-11-25T05:07:43.667Z,7.1
2017-11-25T05:08:24.190Z,7.16
2017-11-25T05:09:04.722Z,7.09
2017-11-25T05:09:45.249Z,7.13
2017-11-25T05:10:25.757Z,7.13
2017-11-25T05:11:06.295Z,7.13
2017-11-25T05:11:46.936Z,7.15
2017-11-25T05:12:27.476Z,7.09
2017-11-25T05:13:08.017Z,7.06
2017-11-25T05:13:48.513Z,7.1
2017-11-25T05:14:29.040Z,7.07
2017-11-25T05:15:09.575Z,7.03
2017-11-25T05:15:50.088Z,7.02
2017-11-25T05:16:30.610Z,7.06
2017-11-25T05:17:11.118Z,7.02
2017-11-25T05:17:51.674Z,6.99
2017-11-25T05:18:32.193Z,7.07
2017-11-25T05:19:12.699Z,7.09
2017-11-25T05:19:53.226Z,7.09
2017-11-25T05:20:33.744Z,7.07
2017-11-25T05:21:14.270Z,7.02
2017-11-25T05:21:54.780Z,6.97
2017-11-25T05:22:35.299Z,6.98
2017-11-25T05:23:15.839Z,6.98
2017-11-25T05:23:56.336Z,6.99
2017-11-25T05:24:36.861Z,6.99
2017-11-25T05:25:17.366Z,6.98
2017-11-25T05:25:57.909Z,6.97
2017-11-25T05:26:38.414Z,6.98
2017-11-25T05:27:18.939Z,6.95
2017-11-25T05:27:59.469Z,6.99
2017-11-25T05:28:39.971Z,6.97
2017-11-25T05:29:20.501Z,6.97
2017-11-25T05:30:01.037Z,6.92
2017-11-25T05:30:41.568Z,6.94
2017-11-25T05:31:22.098Z,6.89
2017-11-25T05:32:02.627Z,6.98
2017-11-25T05:32:43.151Z,6.94
2017-11-25T05:33:23.690Z,6.99
2017-11-25T05:34:04.212Z,6.95
2017-11-25T05:34:44.728Z,6.91
2017-11-25T05:35:25.258Z,6.97
2017-11-25T05:36:05.781Z,6.91
2017-11-25T05:36:46.308Z,6.91
2017-11-25T05:37:26.840Z,6.95
2017-11-25T05:38:07.368Z,6.92
2017-11-25T05:38:47.900Z,6.94
2017-11-25T05:39:28.433Z,6.99
2017-11-25T05:40:08.972Z,6.92
2017-11-25T05:40:49.486Z,6.98
2017-11-25T05:41:30.014Z,6.98
2017-11-25T05:42:10.533Z,6.97
2017-11-25T05:42:51.071Z,6.92
2017-11-25T05:43:31.585Z,6.97
2017-11-25T05:44:12.117Z,6.97
2017-11-25T05:44:52.646Z,6.94
2017-11-25T05:45:33.177Z,6.92
2017-11-25T05:46:13.703Z,6.94
2017-11-25T05:46:54.222Z,6.94
2017-11-25T05:47:34.748Z,6.91
2017-11-25T05:48:15.292Z,6.89
2017-11-25T05:48:55.815Z,6.87
2017-11-25T05:49:36.335Z,6.94
2017-11-25T05:50:16.861Z,6.95
2017-11-25T05:50:57.383Z,6.95
2017-11-25T05:51:37.924Z,6.89
2017-11-25T05:52:18.462Z,6.92
2017-11-25T05:52:58.982Z,6.97
2017-11-25T05:53:39.533Z,6.97
2017-11-25T05:54:20.066Z,6.95
2017-11-25T05:55:00.595Z,6.87
2017-11-25T05:55:41.128Z,6.92
2017-11-25T05:56:21.654Z,6.95
2017-11-25T05:57:02.196Z,6.95
2017-11-25T05:57:42.720Z,6.98
2017-11-25T05:58:23.253Z,6.97
2017-11-25T05:59:03.782Z,6.92
2017-11-25T05:59:44.310Z,6.92
2017-11-25T06:00:24.829Z,6.98
2017-11-25T06:01:05.389Z,6.97
2017-11-25T06:01:45.876Z,6.95
2017-11-25T06:02:26.397Z,6.97
2017-11-25T06:03:06.917Z,6.92
2017-11-25T06:03:47.438Z,6.98
2017-11-25T06:04:27.959Z,6.97
2017-11-25T06:05:08.483Z,6.85
2017-11-25T06:05:49.008Z,6.95
2017-11-25T06:06:29.571Z,6.97
2017-11-25T06:07:10.063Z,6.87
2017-11-25T06:07:50.583Z,6.85
2017-11-25T06:08:31.119Z,6.84
2017-11-25T06:09:11.637Z,6.89
2017-11-25T06:09:52.164Z,6.89
2017-11-25T06:10:32.686Z,6.91
2017-11-25T06:11:13.279Z,6.89
2017-11-25T06:11:53.813Z,6.91
2017-11-25T06:12:34.314Z,6.85
2017-11-25T06:13:14.854Z,6.97
2017-11-25T06:13:55.382Z,6.92
2017-11-25T06:14:35.907Z,6.88
2017-11-25T06:15:16.438Z,6.92
2017-11-25T06:15:56.964Z,6.81
2017-11-25T06:16:37.509Z,6.91
2017-11-25T06:17:18.048Z,6.91
2017-11-25T06:17:58.549Z,6.89
2017-11-25T06:18:39.094Z,6.88
2017-11-25T06:19:19.741Z,6.92
2017-11-25T06:20:00.291Z,6.85
2017-11-25T06:20:40.806Z,6.84
2017-11-25T06:21:21.334Z,6.92
2017-11-25T06:22:01.867Z,6.98
2017-11-25T06:22:42.390Z,6.84
2017-11-25T06:23:22.924Z,6.85
2017-11-25T06:24:03.468Z,6.84
2017-11-25T06:24:44.085Z,6.84
2017-11-25T06:25:24.709Z,6.85
2017-11-25T06:26:05.280Z,6.94
2017-11-25T06:26:45.911Z,6.81
2017-11-25T06:27:26.429Z,6.89
2017-11-25T06:28:06.970Z,6.92
2017-11-25T06:28:47.516Z,6.91
2017-11-25T06:29:28.070Z,6.87
2017-11-25T06:30:08.661Z,6.77
2017-11-25T06:30:49.210Z,6.77
2017-11-25T06:31:29.780Z,6.73
2017-11-25T06:32:10.321Z,6.77
2017-11-25T06:32:50.873Z,6.77
2017-11-25T06:33:31.419Z,6.76
2017-11-25T06:34:11.925Z,6.88
2017-11-25T06:34:52.528Z,6.76
2017-11-25T06:35:33.067Z,6.79
2017-11-25T06:36:13.608Z,6.8
2017-11-25T06:36:54.178Z,6.89
2017-11-25T06:37:34.705Z,6.84
2017-11-25T06:38:15.244Z,6.92
2017-11-25T06:38:55.776Z,6.81
2017-11-25T06:39:36.332Z,6.81
2017-11-25T06:40:16.858Z,6.87
2017-11-25T06:40:57.460Z,6.77
2017-11-25T06:41:38.020Z,6.84
2017-11-25T06:42:18.572Z,6.81
2017-11-25T06:42:59.139Z,6.81
2017-11-25T06:43:39.729Z,6.89
2017-11-25T06:44:20.247Z,6.89
2017-11-25T06:45:00.784Z,6.8
2017-11-25T06:45:41.304Z,6.84
2017-11-25T06:46:21.825Z,6.8
2017-11-25T06:47:02.368Z,6.77
2017-11-25T06:47:42.958Z,6.85
2017-11-25T06:48:23.531Z,6.73
2017-11-25T06:49:04.052Z,6.89
2017-11-25T06:49:44.572Z,6.89
2017-11-25T06:50:25.183Z,6.92
2017-11-25T06:51:05.774Z,6.87
2017-11-25T06:51:46.355Z,6.8
2017-11-25T06:52:26.905Z,6.79
2017-11-25T06:53:07.469Z,6.84
2017-11-25T06:53:48.007Z,6.88
2017-11-25T06:54:28.516Z,6.87
2017-11-25T06:55:09.053Z,6.87
2017-11-25T06:55:49.651Z,6.79
2017-11-25T06:56:30.152Z,6.77
2017-11-25T06:57:10.662Z,6.89
2017-11-25T06:57:51.217Z,6.79
2017-11-25T06:58:31.710Z,6.92
2017-11-25T06:59:12.224Z,6.92
2017-11-25T06:59:52.760Z,6.84
2017-11-25T07:00:33.329Z,6.87
2017-11-25T07:01:13.862Z,6.89
2017-11-25T07:01:54.399Z,6.87
2017-11-25T07:02:34.979Z,6.92
2017-11-25T07:03:15.486Z,6.76
2017-11-25T07:03:56.081Z,6.88
2017-11-25T07:04:36.614Z,6.88
2017-11-25T07:05:17.177Z,6.74
2017-11-25T07:05:57.715Z,6.74
2017-11-25T07:06:38.232Z,6.87
2017-11-25T07:07:18.759Z,6.79
2017-11-25T07:07:59.272Z,6.81
2017-11-25T07:08:39.781Z,6.84
2017-11-25T07:09:20.363Z,6.89
2017-11-25T07:10:00.915Z,6.74
2017-11-25T07:10:41.491Z,6.81
2017-11-25T07:11:22.024Z,6.79
2017-11-25T07:12:02.623Z,6.92
2017-11-25T07:12:43.183Z,6.81
2017-11-25T07:13:23.702Z,6.81
2017-11-25T07:14:04.255Z,6.84
2017-11-25T07:14:44.776Z,6.89
2017-11-25T07:15:25.324Z,6.71
2017-11-25T07:16:05.824Z,6.77
2017-11-25T07:16:46.340Z,6.79
2017-11-25T07:17:26.848Z,6.74
2017-11-25T07:18:07.373Z,6.73
2017-11-25T07:18:47.928Z,6.77
2017-11-25T07:19:28.463Z,6.8
2017-11-25T07:20:08.992Z,6.77
2017-11-25T07:20:49.507Z,6.77
2017-11-25T07:21:30.029Z,6.7
2017-11-25T07:22:10.555Z,6.7
2017-11-25T07:22:51.072Z,6.71
2017-11-25T07:23:31.600Z,6.67
2017-11-25T07:24:12.113Z,6.71
2017-11-25T07:24:52.656Z,6.76
2017-11-25T07:25:33.181Z,6.76
2017-11-25T07:26:13.705Z,6.74
2017-11-25T07:26:54.238Z,6.79
2017-11-25T07:27:34.763Z,6.77
2017-11-25T07:28:15.316Z,6.71
2017-11-25T07:28:55.833Z,6.79
2017-11-25T07:29:36.359Z,6.74
2017-11-25T07:30:16.876Z,6.81
2017-11-25T07:30:57.418Z,6.71
2017-11-25T07:31:37.934Z,6.73
2017-11-25T07:32:18.471Z,6.66
2017-11-25T07:32:58.971Z,6.59
2017-11-25T07:33:39.510Z,6.59
2017-11-25T07:34:20.048Z,6.62
2017-11-25T07:35:00.579Z,6.66
2017-11-25T07:35:41.101Z,6.69
2017-11-25T07:36:21.620Z,6.59
2017-11-25T07:37:02.150Z,6.7
2017-11-25T07:37:42.670Z,6.62
2017-11-25T07:38:23.189Z,6.67
2017-11-25T07:39:03.712Z,6.67
2017-11-25T07:39:44.249Z,6.69
2017-11-25T07:40:24.763Z,6.66
2017-11-25T07:41:05.379Z,6.62
2017-11-25T07:41:45.964Z,6.61
2017-11-25T07:42:26.481Z,6.59
2017-11-25T07:43:07.007Z,6.61
2017-11-25T07:43:47.535Z,6.61
2017-11-25T07:44:28.037Z,6.58
2017-11-25T07:45:08.579Z,6.67
2017-11-25T07:45:49.108Z,6.55
2017-11-25T07:46:29.616Z,6.61
2017-11-25T07:47:10.132Z,6.61
2017-11-25T07:47:50.647Z,6.62
2017-11-25T07:48:31.177Z,6.59
2017-11-25T07:49:11.702Z,6.61
2017-11-25T07:49:52.228Z,6.59
2017-11-25T07:50:32.757Z,6.61
2017-11-25T07:51:13.286Z,6.55
2017-11-25T07:51:53.823Z,6.58
2017-11-25T07:52:34.336Z,6.59
2017-11-25T07:53:14.838Z,6.55
2017-11-25T07:53:55.356Z,6.58
2017-11-25T07:54:35.878Z,6.62
2017-11-25T07:55:16.409Z,6.56
2017-11-25T07:55:56.919Z,6.59
2017-11-25T07:56:37.431Z,6.59
2017-11-25T07:57:17.960Z,6.61
2017-11-25T07:57:58.496Z,6.64
2017-11-25T07:58:39.044Z,6.61
2017-11-25T07:59:19.578Z,6.59
2017-11-25T08:00:00.103Z,6.64
2017-11-25T08:00:40.626Z,6.56
2017-11-25T08:01:21.169Z,6.61
2017-11-25T08:02:01.696Z,6.58
2017-11-25T08:02:42.227Z,6.59
2017-11-25T08:03:22.740Z,6.61
2017-11-25T08:04:03.273Z,6.64
2017-11-25T08:04:43.815Z,6.62
2017-11-25T08:05:24.329Z,6.66
2017-11-25T08:06:04.837Z,6.61
2017-11-25T08:06:45.343Z,6.59
2017-11-25T08:07:25.846Z,6.59
2017-11-25T08:08:06.374Z,6.59
2017-11-25T08:08:46.907Z,6.58
2017-11-25T08:09:27.424Z,6.66
2017-11-25T08:10:07.947Z,6.64
2017-11-25T08:10:48.468Z,6.64
2017-11-25T08:11:28.976Z,6.62
2017-11-25T08:12:09.496Z,6.61
2017-11-25T08:12:50.010Z,6.59
2017-11-25T08:13:30.524Z,6.62
2017-11-25T08:14:11.039Z,6.58
2017-11-25T08:14:51.568Z,6.61
2017-11-25T08:15:32.086Z,6.56
2017-11-25T08:16:12.618Z,6.58
2017-11-25T08:16:53.144Z,6.55
2017-11-25T08:17:33.680Z,6.58
2017-11-25T08:18:14.171Z,6.54
2017-11-25T08:18:54.658Z,6.54
2017-11-25T08:19:35.194Z,6.55
2017-11-25T08:20:15.698Z,6.54
2017-11-25T08:20:56.183Z,6.52
2017-11-25T08:21:36.711Z,6.48
2017-11-25T08:22:17.192Z,6.52
2017-11-25T08:22:57.720Z,6.54
2017-11-25T08:23:38.247Z,6.52
2017-11-25T08:24:18.775Z,6.48
2017-11-25T08:24:59.299Z,6.55
2017-11-25T08:25:39.830Z,6.58
2017-11-25T08:26:20.355Z,6.54
2017-11-25T08:27:00.872Z,6.52
2017-11-25T08:27:41.422Z,6.49
2017-11-25T08:28:21.930Z,6.52
2017-11-25T08:29:02.445Z,6.46
2017-11-25T08:29:42.986Z,6.52
2017-11-25T08:30:23.502Z,6.55
2017-11-25T08:31:04.023Z,6.59
2017-11-25T08:31:44.525Z,6.55
2017-11-25T08:32:25.051Z,6.59
2017-11-25T08:33:05.554Z,6.58
2017-11-25T08:33:46.082Z,6.59
2017-11-25T08:34:26.612Z,6.54
2017-11-25T08:35:07.125Z,6.61
2017-11-25T08:35:47.675Z,6.61
2017-11-25T08:36:28.194Z,6.52
2017-11-25T08:37:08.718Z,6.55
2017-11-25T08:37:49.233Z,6.56
2017-11-25T08:38:29.744Z,6.58
2017-11-25T08:39:10.270Z,6.54
2017-11-25T08:39:50.810Z,6.51
2017-11-25T08:40:31.331Z,6.55
2017-11-25T08:41:11.848Z,6.59
2017-11-25T08:41:52.385Z,6.55
2017-11-25T08:42:32.895Z,6.56
2017-11-25T08:43:13.400Z,6.54
2017-11-25T08:43:53.920Z,6.55
2017-11-25T08:44:34.441Z,6.58
2017-11-25T08:45:14.948Z,6.55
2017-11-25T08:45:55.470Z,6.54
2017-11-25T08:46:35.999Z,6.54
2017-11-25T08:47:16.523Z,6.58
2017-11-25T08:47:57.053Z,6.54
2017-11-25T08:48:37.568Z,6.58
2017-11-25T08:49:18.125Z,6.61
2017-11-25T08:49:58.659Z,6.58
2017-11-25T08:50:39.175Z,6.52
2017-11-25T08:51:19.682Z,6.46
2017-11-25T08:52:00.241Z,6.44
2017-11-25T08:52:40.705Z,6.49
2017-11-25T08:53:21.238Z,6.52
2017-11-25T08:54:01.786Z,6.56
2017-11-25T08:54:42.311Z,6.51
2017-11-25T08:55:22.830Z,6.56
2017-11-25T08:56:03.352Z,6.46
2017-11-25T08:56:43.875Z,6.49
2017-11-25T08:57:24.382Z,6.52
2017-11-25T08:58:04.901Z,6.48
2017-11-25T08:58:45.410Z,6.49
2017-11-25T08:59:25.928Z,6.52
2017-11-25T09:00:06.445Z,6.51
2017-11-25T09:00:46.962Z,6.54